Time;durP1;ratioP1;P1;durP2;ratioP2;P2;SDS_P1;SDS_P2;PMS_P1;PMS_P2;Temp;Humidity;BMP_temperature;BMP_pressure;BME280_temperature;BME280_humidity;BME280_pressure;Samples;Min_cycle;Max_cycle;Signal;HPM_P1;HPM_P2
2022/01/26 00:07:32;;;;;;;85.68;49.13;;;3.30;99.90;;;;;;5133801;27;20126;-77
2022/01/26 00:09:58;;;;;;;81.65;46.38;;;3.30;99.90;;;;;;5133426;27;20506;-78
2022/01/26 00:12:23;;;;;;;85.50;48.45;;;3.30;99.90;;;;;;5132700;27;20092;-77
2022/01/26 00:14:49;;;;;;;87.43;46.83;;;3.30;99.90;;;;;;5113492;28;20135;-77
2022/01/26 00:17:15;;;;;;;86.20;48.63;;;3.20;99.90;;;;;;5132841;27;20035;-78
2022/01/26 00:22:35;;;;;;;85.38;47.80;;;3.30;99.90;;;;;;5151660;27;20384;-77
2022/01/26 00:38:39;;;;;;;88.28;49.38;;;3.20;99.90;;;;;;5128025;27;20068;-78
2022/01/26 00:41:10;;;;;;;90.32;49.47;;;3.20;99.90;;;;;;5153984;27;20043;-78
2022/01/26 00:43:38;;;;;;;91.47;49.03;;;3.20;99.90;;;;;;5149263;27;20506;-78
2022/01/26 00:46:07;;;;;;;90.43;49.28;;;3.30;99.90;;;;;;5136639;27;20094;-77
2022/01/26 00:48:36;;;;;;;93.65;50.22;;;3.20;99.90;;;;;;5124717;27;20107;-78
2022/01/26 00:51:05;;;;;;;92.25;48.92;;;3.20;99.90;;;;;;5136854;27;20066;-78
2022/01/26 00:53:44;;;;;;;89.57;49.95;;;3.20;99.90;;;;;;5137190;27;20421;-77
2022/01/26 00:56:10;;;;;;;89.30;48.75;;;3.20;99.90;;;;;;5136774;27;20047;-78
2022/01/26 00:58:36;;;;;;;96.63;51.58;;;3.20;99.90;;;;;;5137144;27;20057;-78
2022/01/26 01:01:04;;;;;;;96.20;50.83;;;3.20;99.90;;;;;;5136459;27;20047;-78
2022/01/26 01:03:33;;;;;;;91.20;49.60;;;3.20;99.90;;;;;;5135547;27;20110;-76
2022/01/26 01:06:07;;;;;;;91.65;49.33;;;3.20;99.90;;;;;;5136201;27;20115;-78
2022/01/26 01:08:34;;;;;;;87.57;48.72;;;3.10;99.90;;;;;;5139815;27;20396;-77
2022/01/26 01:11:00;;;;;;;97.53;49.42;;;3.10;99.90;;;;;;5147072;27;20445;-78
2022/01/26 01:13:34;;;;;;;92.25;48.47;;;3.10;99.90;;;;;;5140060;27;20049;-74
2022/01/26 01:16:01;;;;;;;92.25;49.60;;;3.10;99.90;;;;;;5157230;27;20043;-78
2022/01/26 01:18:37;;;;;;;90.50;48.72;;;3.20;99.90;;;;;;5154645;27;20043;-77
2022/01/26 01:21:31;;;;;;;88.97;47.60;;;3.10;99.90;;;;;;5115216;27;20440;-77
2022/01/26 01:31:49;;;;;;;96.32;50.40;;;3.10;99.90;;;;;;5155254;27;20054;-77
2022/01/26 01:34:21;;;;;;;96.25;49.17;;;3.10;99.90;;;;;;5134566;27;20491;-78
2022/01/26 01:36:50;;;;;;;92.72;49.58;;;3.10;99.90;;;;;;5135151;27;20031;-78
2022/01/26 01:39:18;;;;;;;90.15;49.20;;;3.10;99.90;;;;;;5156564;27;20111;-78
2022/01/26 01:41:46;;;;;;;97.35;50.78;;;3.10;99.90;;;;;;5156157;27;20095;-78
2022/01/26 01:44:14;;;;;;;98.20;50.75;;;3.00;99.90;;;;;;5154027;27;20541;-79
2022/01/26 01:46:41;;;;;;;100.65;51.72;;;3.00;99.90;;;;;;5155603;27;20490;-79
2022/01/26 01:49:09;;;;;;;99.57;49.88;;;3.00;99.90;;;;;;5136749;27;20403;-79
2022/01/26 01:51:38;;;;;;;96.63;50.20;;;3.00;99.90;;;;;;5135054;27;20049;-77
2022/01/26 01:54:10;;;;;;;103.13;53.05;;;3.00;99.90;;;;;;5152796;27;20046;-77
2022/01/26 01:56:39;;;;;;;97.88;50.42;;;3.00;99.90;;;;;;5134126;27;20518;-78
2022/01/26 01:59:05;;;;;;;101.47;52.67;;;2.90;99.90;;;;;;5153133;27;20050;-78
2022/01/26 02:01:30;;;;;;;104.53;53.10;;;2.90;99.90;;;;;;5156181;27;20179;-78
2022/01/26 02:03:56;;;;;;;100.53;52.35;;;2.90;99.90;;;;;;5140033;27;20566;-79
2022/01/26 02:06:22;;;;;;;104.25;52.90;;;2.90;99.90;;;;;;5134908;27;20138;-79
2022/01/26 02:08:48;;;;;;;98.50;52.60;;;2.90;99.90;;;;;;5134698;27;20043;-79
2022/01/26 02:11:15;;;;;;;98.80;50.35;;;2.90;99.90;;;;;;5134847;27;20104;-78
2022/01/26 02:14:06;;;;;;;100.55;51.17;;;2.90;99.90;;;;;;5141400;27;20511;-78
2022/01/26 02:16:41;;;;;;;101.90;50.60;;;2.90;99.90;;;;;;5136022;27;20495;-79
2022/01/26 02:19:45;;;;;;;98.43;49.00;;;2.80;99.90;;;;;;5134217;27;20494;-79
2022/01/26 02:52:41;;;;;;;92.10;47.38;;;2.70;99.90;;;;;;5154745;27;20097;-79
2022/01/26 02:55:20;;;;;;;92.55;48.72;;;2.60;99.90;;;;;;5113961;28;20055;-78
2022/01/26 02:58:44;;;;;;;92.35;48.03;;;2.60;99.90;;;;;;5130077;27;20125;-76
2022/01/26 03:03:17;;;;;;;93.97;47.17;;;2.60;99.90;;;;;;5132089;27;20055;-79
2022/01/26 03:05:52;;;;;;;91.60;45.40;;;2.60;99.90;;;;;;5114717;27;20046;-77
2022/01/26 03:08:26;;;;;;;89.63;44.20;;;2.50;99.90;;;;;;5146202;27;20046;-78
2022/01/26 03:10:55;;;;;;;96.03;48.13;;;2.60;99.90;;;;;;5133041;27;20090;-78
2022/01/26 03:13:26;;;;;;;93.30;45.03;;;2.60;99.90;;;;;;5134031;27;20051;-78
2022/01/26 03:15:57;;;;;;;91.40;46.13;;;2.50;99.90;;;;;;5133346;27;20039;-77
2022/01/26 03:20:51;;;;;;;88.35;44.20;;;2.50;99.90;;;;;;5132843;27;20046;-78
2022/01/26 03:28:58;;;;;;;88.10;43.45;;;2.60;99.90;;;;;;5138977;27;20407;-76
2022/01/26 03:36:19;;;;;;;91.18;44.42;;;2.50;99.90;;;;;;5134611;27;20039;-78
2022/01/26 03:38:48;;;;;;;87.22;42.90;;;2.50;99.90;;;;;;5133164;27;20507;-72
2022/01/26 03:43:40;;;;;;;84.78;40.78;;;2.50;99.90;;;;;;5154429;27;20057;-78
2022/01/26 03:46:06;;;;;;;87.30;41.92;;;2.50;99.90;;;;;;5150114;27;20191;-77
2022/01/26 03:48:32;;;;;;;80.72;39.83;;;2.50;99.90;;;;;;5133004;28;20562;-76
2022/01/26 03:50:59;;;;;;;84.50;40.95;;;2.50;99.90;;;;;;5132729;27;20099;-77
2022/01/26 03:53:25;;;;;;;85.47;40.45;;;2.50;99.90;;;;;;5133674;27;20050;-77
2022/01/26 03:55:50;;;;;;;84.90;39.50;;;2.50;99.90;;;;;;5142826;27;20031;-77
2022/01/26 03:58:16;;;;;;;81.63;40.17;;;2.50;99.90;;;;;;5153717;27;20050;-77
2022/01/26 04:00:42;;;;;;;81.40;39.58;;;2.40;99.90;;;;;;5144995;27;20054;-78
2022/01/26 04:03:08;;;;;;;78.43;38.28;;;2.50;99.90;;;;;;5132003;27;20049;-77
2022/01/26 04:05:33;;;;;;;85.93;39.10;;;2.50;99.90;;;;;;5135473;27;20043;-78
2022/01/26 04:08:05;;;;;;;80.28;38.53;;;2.40;99.90;;;;;;5142144;27;20047;-76
2022/01/26 04:10:49;;;;;;;78.93;38.63;;;2.40;99.90;;;;;;5136664;27;20085;-78
2022/01/26 04:13:15;;;;;;;78.32;37.00;;;2.40;99.90;;;;;;5143944;27;20043;-77
2022/01/26 04:15:41;;;;;;;81.88;38.80;;;2.40;99.90;;;;;;5145539;27;20043;-77
2022/01/26 04:18:11;;;;;;;81.90;38.78;;;2.40;99.90;;;;;;5155962;27;20047;-77
2022/01/26 04:20:41;;;;;;;84.85;40.15;;;2.50;99.90;;;;;;5155098;27;20402;-76
2022/01/26 04:23:13;;;;;;;78.40;38.80;;;2.40;99.90;;;;;;5138319;27;20066;-76
2022/01/26 04:25:41;;;;;;;82.55;39.03;;;2.40;99.90;;;;;;5157889;27;20110;-77
2022/01/26 04:28:11;;;;;;;83.15;38.88;;;2.40;99.90;;;;;;5138936;27;20111;-77
2022/01/26 04:30:38;;;;;;;79.80;39.67;;;2.40;99.90;;;;;;5136610;27;20651;-77
2022/01/26 04:33:05;;;;;;;86.70;38.55;;;2.40;99.90;;;;;;5136468;27;20122;-75
2022/01/26 04:35:33;;;;;;;82.97;38.33;;;2.40;99.90;;;;;;5135807;27;20070;-77
2022/01/26 04:40:59;;;;;;;87.63;40.17;;;2.40;99.90;;;;;;5146407;27;20058;-78
2022/01/26 04:43:28;;;;;;;89.22;41.25;;;2.40;99.90;;;;;;5150223;27;20050;-78
2022/01/26 04:45:54;;;;;;;86.57;40.13;;;2.40;99.90;;;;;;5135997;27;20512;-76
2022/01/26 04:48:20;;;;;;;89.68;40.50;;;2.30;99.90;;;;;;5136643;27;20108;-78
2022/01/26 04:50:46;;;;;;;87.13;40.13;;;2.40;99.90;;;;;;5140733;27;20046;-78
2022/01/26 04:53:12;;;;;;;87.13;41.10;;;2.30;99.90;;;;;;5135160;27;20047;-78
2022/01/26 04:55:38;;;;;;;91.07;40.45;;;2.30;99.90;;;;;;5136455;27;20046;-78
2022/01/26 04:58:04;;;;;;;83.65;39.50;;;2.30;99.90;;;;;;5146463;27;20058;-78
2022/01/26 05:00:29;;;;;;;85.55;39.60;;;2.20;99.90;;;;;;5155537;27;20129;-78
2022/01/26 05:02:55;;;;;;;85.32;40.50;;;2.20;99.90;;;;;;5124291;27;20039;-74
2022/01/26 05:05:21;;;;;;;82.97;38.83;;;2.20;99.90;;;;;;5137883;27;20448;-77
2022/01/26 05:07:47;;;;;;;86.13;39.88;;;2.20;99.90;;;;;;5163976;27;20051;-77
2022/01/26 05:10:12;;;;;;;84.82;39.60;;;2.20;99.90;;;;;;5156578;27;20376;-77
2022/01/26 05:12:39;;;;;;;84.30;40.55;;;2.20;99.90;;;;;;5154056;27;20369;-78
2022/01/26 05:15:05;;;;;;;82.13;39.25;;;2.20;99.90;;;;;;5135875;27;20059;-77
2022/01/26 05:17:31;;;;;;;85.07;39.50;;;2.20;99.90;;;;;;5136242;27;20043;-78
2022/01/26 05:19:59;;;;;;;82.88;37.53;;;2.20;99.90;;;;;;5135878;27;20089;-72
2022/01/26 05:22:25;;;;;;;80.05;37.63;;;2.20;99.90;;;;;;5136373;27;20372;-79
2022/01/26 05:24:52;;;;;;;80.70;37.83;;;2.30;99.90;;;;;;5136897;27;20475;-78
2022/01/26 05:27:19;;;;;;;80.32;38.70;;;2.10;99.90;;;;;;5138722;27;20470;-78
2022/01/26 05:29:45;;;;;;;82.30;38.58;;;2.20;99.90;;;;;;5135089;27;20046;-78
2022/01/26 05:32:10;;;;;;;84.18;39.15;;;2.10;99.90;;;;;;5135295;27;20043;-78
2022/01/26 05:34:36;;;;;;;78.45;38.45;;;2.10;99.90;;;;;;5135582;27;20493;-78
2022/01/26 05:37:02;;;;;;;86.28;40.58;;;2.10;99.90;;;;;;5135374;27;20047;-78
2022/01/26 05:39:28;;;;;;;84.30;38.40;;;2.10;99.90;;;;;;5135846;27;20035;-78
2022/01/26 05:41:53;;;;;;;85.07;38.10;;;2.10;99.90;;;;;;5135806;27;20054;-78
2022/01/26 05:44:19;;;;;;;87.28;39.88;;;2.20;99.90;;;;;;5134131;27;20047;-78
2022/01/26 05:46:48;;;;;;;84.03;38.35;;;2.20;99.90;;;;;;5134978;27;20035;-78
2022/01/26 05:49:17;;;;;;;85.25;38.03;;;2.20;99.90;;;;;;5134553;27;20059;-77
2022/01/26 05:51:45;;;;;;;88.15;40.33;;;2.20;99.90;;;;;;5135210;27;20454;-78
2022/01/26 05:54:12;;;;;;;81.63;38.78;;;2.20;99.90;;;;;;5135033;27;20395;-78
2022/01/26 05:56:39;;;;;;;83.82;38.42;;;2.20;99.90;;;;;;5135192;27;20122;-77
2022/01/26 05:59:04;;;;;;;86.82;39.22;;;2.20;99.90;;;;;;5134811;27;20043;-77
2022/01/26 06:01:30;;;;;;;89.32;39.00;;;2.20;99.90;;;;;;5135568;27;20453;-78
2022/01/26 06:03:56;;;;;;;82.05;38.53;;;2.20;99.90;;;;;;5134657;27;20035;-78
2022/01/26 06:06:22;;;;;;;82.68;38.95;;;2.20;99.90;;;;;;5133610;27;20053;-78
2022/01/26 06:08:47;;;;;;;83.50;38.22;;;2.20;99.90;;;;;;5134999;27;20043;-78
2022/01/26 06:11:13;;;;;;;87.57;39.40;;;2.20;99.90;;;;;;5134515;27;20126;-78
2022/01/26 06:13:39;;;;;;;81.32;37.58;;;2.20;99.90;;;;;;5133962;27;20050;-77
2022/01/26 06:16:05;;;;;;;85.35;37.17;;;2.20;99.90;;;;;;5133404;27;20047;-77
2022/01/26 06:18:30;;;;;;;82.05;37.85;;;2.20;99.90;;;;;;5135290;27;20487;-78
2022/01/26 06:20:56;;;;;;;81.40;37.83;;;2.20;99.90;;;;;;5135101;27;20043;-78
2022/01/26 06:23:26;;;;;;;82.47;37.40;;;2.20;99.90;;;;;;5134243;27;20205;-78
2022/01/26 06:25:57;;;;;;;81.00;37.90;;;2.20;99.90;;;;;;5134502;27;20122;-79
2022/01/26 06:28:26;;;;;;;79.57;37.78;;;2.20;99.90;;;;;;5132730;27;20617;-78
2022/01/26 06:30:56;;;;;;;75.82;34.95;;;2.20;99.90;;;;;;5134799;27;20404;-78
2022/01/26 06:33:22;;;;;;;78.75;34.78;;;2.20;99.90;;;;;;5134135;27;20047;-78
2022/01/26 06:35:48;;;;;;;73.72;35.30;;;2.30;99.90;;;;;;5132944;27;20047;-79
2022/01/26 06:38:16;;;;;;;78.68;34.38;;;2.20;99.90;;;;;;5133842;27;20062;-79
2022/01/26 06:40:42;;;;;;;74.60;34.85;;;2.30;99.90;;;;;;5134422;27;20043;-78
2022/01/26 06:43:14;;;;;;;73.18;33.97;;;2.20;99.90;;;;;;5133882;27;20107;-78
2022/01/26 06:45:47;;;;;;;72.38;33.80;;;2.30;99.90;;;;;;5133968;27;20039;-77
2022/01/26 06:50:40;;;;;;;66.40;31.30;;;2.20;99.90;;;;;;5134362;27;20196;-79
2022/01/26 06:53:06;;;;;;;68.05;30.85;;;2.20;99.90;;;;;;5134187;27;20523;-72
2022/01/26 06:55:32;;;;;;;67.55;30.65;;;2.30;99.90;;;;;;5133535;27;20047;-78
2022/01/26 06:57:57;;;;;;;63.22;30.42;;;2.30;99.90;;;;;;5133994;27;20062;-77
2022/01/26 07:00:23;;;;;;;64.82;29.73;;;2.30;99.90;;;;;;5133025;27;20630;-78
2022/01/26 07:02:49;;;;;;;65.15;30.77;;;2.30;99.90;;;;;;5133201;27;20047;-78
2022/01/26 07:05:14;;;;;;;58.70;27.42;;;2.30;99.90;;;;;;5132622;27;20127;-77
2022/01/26 07:07:41;;;;;;;58.92;27.58;;;2.30;99.90;;;;;;5133803;27;20176;-78
2022/01/26 07:10:08;;;;;;;57.22;28.08;;;2.30;99.90;;;;;;5133942;27;20050;-73
2022/01/26 07:12:35;;;;;;;57.47;27.17;;;2.30;99.90;;;;;;5134205;27;20058;-78
2022/01/26 07:22:58;;;;;;;56.72;26.67;;;2.30;99.90;;;;;;5133502;27;20050;-78
2022/01/26 07:25:24;;;;;;;54.72;26.30;;;2.40;99.90;;;;;;5132486;27;20051;-78
2022/01/26 07:27:51;;;;;;;53.63;26.63;;;2.40;99.90;;;;;;5133900;27;20057;-78
2022/01/26 07:30:17;;;;;;;53.20;26.08;;;2.40;99.90;;;;;;5133117;27;20482;-78
2022/01/26 07:32:43;;;;;;;57.45;27.27;;;2.40;99.90;;;;;;5133286;27;20381;-78
2022/01/26 07:35:09;;;;;;;56.47;27.38;;;2.40;99.90;;;;;;5133296;27;20049;-78
2022/01/26 07:37:35;;;;;;;58.78;28.00;;;2.40;99.90;;;;;;5133336;27;20085;-78
2022/01/26 07:40:05;;;;;;;56.83;28.15;;;2.40;99.90;;;;;;5133526;27;20078;-78
2022/01/26 07:42:31;;;;;;;55.88;27.90;;;2.40;99.90;;;;;;5131950;27;20643;-78
2022/01/26 07:44:57;;;;;;;62.78;30.73;;;2.40;99.90;;;;;;5132650;27;20155;-78
2022/01/26 07:47:23;;;;;;;61.38;30.40;;;2.40;99.90;;;;;;5126145;27;20103;-75
2022/01/26 07:49:55;;;;;;;63.05;32.38;;;2.40;99.90;;;;;;5127912;27;20039;-78
2022/01/26 07:52:21;;;;;;;64.95;33.30;;;2.40;99.90;;;;;;5132280;27;20043;-75
2022/01/26 07:54:50;;;;;;;67.47;33.75;;;2.40;99.90;;;;;;5137003;27;20549;-78
2022/01/26 07:57:17;;;;;;;70.22;34.45;;;2.50;99.90;;;;;;5135038;27;20090;-78
2022/01/26 07:59:42;;;;;;;70.05;36.42;;;2.50;99.90;;;;;;5137179;27;20043;-76
2022/01/26 08:02:08;;;;;;;72.20;35.55;;;2.50;99.90;;;;;;5137079;27;20039;-78
2022/01/26 08:04:34;;;;;;;71.35;37.08;;;2.50;99.90;;;;;;5135689;27;20129;-77
2022/01/26 08:06:59;;;;;;;72.60;37.35;;;2.50;99.90;;;;;;5137679;27;20040;-76
2022/01/26 08:09:25;;;;;;;73.55;37.85;;;2.50;99.90;;;;;;5136631;27;20158;-77
2022/01/26 08:11:51;;;;;;;71.68;38.28;;;2.50;99.90;;;;;;5137383;27;20046;-78
2022/01/26 08:14:16;;;;;;;82.15;40.35;;;2.50;99.90;;;;;;5138497;27;20046;-78
2022/01/26 08:16:43;;;;;;;75.47;39.35;;;2.50;99.90;;;;;;5140024;27;20046;-78
2022/01/26 08:19:09;;;;;;;79.72;41.67;;;2.50;99.90;;;;;;5139699;27;20050;-78
2022/01/26 08:21:34;;;;;;;83.93;42.55;;;2.50;99.90;;;;;;5139674;27;20047;-78
2022/01/26 08:24:12;;;;;;;81.65;43.33;;;2.50;99.90;;;;;;5140388;27;20050;-78
2022/01/26 08:26:41;;;;;;;84.93;45.10;;;2.60;99.90;;;;;;5139618;27;20131;-78
2022/01/26 08:29:14;;;;;;;85.93;44.97;;;2.50;99.90;;;;;;5139721;27;20058;-78
2022/01/26 08:31:40;;;;;;;90.95;46.00;;;2.60;99.90;;;;;;5139779;27;20051;-78
2022/01/26 08:34:06;;;;;;;93.10;46.95;;;2.60;99.90;;;;;;5140190;27;20433;-78
2022/01/26 08:36:31;;;;;;;88.00;46.55;;;2.60;99.90;;;;;;5139317;27;20491;-78
2022/01/26 08:38:57;;;;;;;94.32;48.95;;;2.60;99.90;;;;;;5139662;27;20047;-78
2022/01/26 08:41:23;;;;;;;93.18;48.42;;;2.60;99.90;;;;;;5139374;27;20466;-76
2022/01/26 08:43:49;;;;;;;91.45;47.92;;;2.70;99.90;;;;;;5140192;27;20130;-78
2022/01/26 08:46:18;;;;;;;96.90;50.55;;;2.70;99.90;;;;;;5139836;27;20035;-78
2022/01/26 08:48:44;;;;;;;96.30;50.42;;;2.70;99.90;;;;;;5139614;27;20083;-78
2022/01/26 08:51:09;;;;;;;99.18;50.58;;;2.70;99.90;;;;;;5139735;27;20071;-78
2022/01/26 08:53:35;;;;;;;100.28;50.90;;;2.70;99.90;;;;;;5139349;27;20417;-77
2022/01/26 08:56:01;;;;;;;103.10;52.90;;;2.70;99.90;;;;;;5139917;27;20039;-78
2022/01/26 08:58:28;;;;;;;101.63;54.25;;;2.70;99.90;;;;;;5139813;27;20047;-77
2022/01/26 09:00:54;;;;;;;105.68;55.30;;;2.70;99.90;;;;;;5139613;27;20047;-77
2022/01/26 09:03:20;;;;;;;104.63;55.42;;;2.80;99.90;;;;;;5138006;27;20047;-78
2022/01/26 09:05:46;;;;;;;103.85;56.10;;;2.80;99.90;;;;;;5135916;27;20039;-78
2022/01/26 09:08:12;;;;;;;106.85;58.55;;;2.80;99.90;;;;;;5136760;27;20084;-78
2022/01/26 09:10:39;;;;;;;113.28;56.83;;;2.90;99.90;;;;;;5135827;27;20039;-77
2022/01/26 09:13:06;;;;;;;111.25;57.15;;;2.80;99.90;;;;;;5136712;27;20051;-78
2022/01/26 09:15:32;;;;;;;110.53;57.75;;;2.80;99.90;;;;;;5136201;27;20047;-77
2022/01/26 09:18:01;;;;;;;110.38;58.78;;;2.90;99.90;;;;;;5136748;27;20078;-78
2022/01/26 09:20:27;;;;;;;114.05;59.28;;;2.90;99.90;;;;;;5136277;27;20396;-77
2022/01/26 09:22:52;;;;;;;120.57;62.42;;;2.90;99.90;;;;;;5135827;27;20043;-78
2022/01/26 09:25:18;;;;;;;112.78;61.05;;;2.90;99.90;;;;;;5136513;27;20428;-77
2022/01/26 09:27:44;;;;;;;113.57;59.95;;;2.90;99.90;;;;;;5135893;27;20055;-78
2022/01/26 09:30:11;;;;;;;117.93;61.15;;;2.90;99.90;;;;;;5136353;27;20043;-77
2022/01/26 09:32:38;;;;;;;114.88;59.67;;;3.00;99.90;;;;;;5135967;27;20039;-77
2022/01/26 09:35:06;;;;;;;122.28;64.28;;;3.00;99.90;;;;;;5136373;27;20043;-77
2022/01/26 09:37:32;;;;;;;123.70;62.97;;;3.00;99.90;;;;;;5135734;27;20046;-76
2022/01/26 09:39:58;;;;;;;118.82;64.65;;;3.00;99.90;;;;;;5136219;27;20499;-77
2022/01/26 09:42:24;;;;;;;127.50;66.13;;;3.00;99.90;;;;;;5136602;27;20092;-76
2022/01/26 09:44:50;;;;;;;127.57;65.25;;;3.10;99.90;;;;;;5136147;27;20039;-76
2022/01/26 09:47:15;;;;;;;126.90;63.80;;;3.10;99.90;;;;;;5135852;27;20047;-76
2022/01/26 09:49:41;;;;;;;118.97;63.30;;;3.10;99.90;;;;;;5135606;27;20039;-77
2022/01/26 09:52:28;;;;;;;122.53;65.00;;;3.10;99.90;;;;;;5137719;27;20391;-76
2022/01/26 09:54:58;;;;;;;123.80;66.20;;;3.10;99.90;;;;;;5155509;27;20526;-77
2022/01/26 09:57:24;;;;;;;125.93;68.22;;;3.10;99.90;;;;;;5156411;27;20059;-77
2022/01/26 09:59:49;;;;;;;131.18;68.80;;;3.20;99.90;;;;;;5156652;27;20109;-78
2022/01/26 10:02:30;;;;;;;124.05;67.15;;;3.20;99.90;;;;;;5156458;27;20047;-77
2022/01/26 10:05:05;;;;;;;126.30;68.45;;;3.20;99.90;;;;;;5156351;27;20089;-75
2022/01/26 10:15:43;;;;;;;126.47;66.22;;;3.30;99.90;;;;;;5114561;28;20059;-77
2022/01/26 10:18:17;;;;;;;131.10;69.80;;;3.30;99.90;;;;;;5114954;28;20039;-77
2022/01/26 10:20:51;;;;;;;133.10;70.63;;;3.40;99.90;;;;;;5117980;27;20069;-77
2022/01/26 10:23:22;;;;;;;133.10;69.95;;;3.30;99.90;;;;;;5135388;27;20069;-77
2022/01/26 10:26:01;;;;;;;130.50;69.10;;;3.40;99.90;;;;;;5134256;27;20043;-77
2022/01/26 10:28:38;;;;;;;130.93;70.18;;;3.40;99.90;;;;;;5135219;27;20050;-76
2022/01/26 10:31:19;;;;;;;129.15;68.75;;;3.40;99.90;;;;;;5135440;27;20089;-77
2022/01/26 10:33:54;;;;;;;126.97;68.57;;;3.40;99.90;;;;;;5134816;27;20047;-76
2022/01/26 10:36:20;;;;;;;129.07;67.60;;;3.40;99.90;;;;;;5136098;27;20035;-77
2022/01/26 10:39:00;;;;;;;128.27;66.95;;;3.40;99.90;;;;;;5134529;27;20072;-76
2022/01/26 10:41:25;;;;;;;129.97;68.10;;;3.50;99.90;;;;;;5135257;27;20100;-76
2022/01/26 10:43:54;;;;;;;130.43;68.40;;;3.50;99.90;;;;;;5134577;27;20047;-76
2022/01/26 10:46:36;;;;;;;130.32;68.78;;;3.50;99.90;;;;;;5134861;27;20043;-76
2022/01/26 10:54:35;;;;;;;127.47;68.40;;;3.60;99.90;;;;;;5114497;28;20139;-77
2022/01/26 10:57:02;;;;;;;;;;;3.60;99.90;;;;;;5114616;28;20079;-76
2022/01/26 10:59:27;;;;;;;124.68;67.75;;;3.60;99.90;;;;;;5114333;28;19927;-77
2022/01/26 11:01:54;;;;;;;119.65;63.97;;;3.60;99.90;;;;;;5113549;28;20473;-76
2022/01/26 11:04:19;;;;;;;118.28;63.25;;;3.60;99.90;;;;;;5152488;27;20114;-77
2022/01/26 11:06:51;;;;;;;123.90;65.43;;;3.60;99.90;;;;;;5154755;27;20111;-77
2022/01/26 11:09:21;;;;;;;118.25;62.90;;;3.70;99.90;;;;;;5155308;27;20046;-77
2022/01/26 11:11:46;;;;;;;115.07;63.65;;;3.80;99.90;;;;;;5154654;27;20049;-77
2022/01/26 11:14:21;;;;;;;112.80;63.22;;;3.70;99.90;;;;;;5155158;27;20047;-77
2022/01/26 11:16:54;;;;;;;120.22;62.88;;;3.70;99.90;;;;;;5154799;27;20121;-77
2022/01/26 11:19:20;;;;;;;116.88;63.60;;;3.80;99.90;;;;;;5153478;27;20143;-77
2022/01/26 11:21:46;;;;;;;118.00;65.38;;;3.80;99.90;;;;;;5154868;27;20043;-76
2022/01/26 11:24:23;;;;;;;113.28;60.90;;;3.90;99.90;;;;;;5155095;27;20069;-77
2022/01/26 11:27:02;;;;;;;116.32;62.42;;;3.80;99.90;;;;;;5153779;27;20042;-77
2022/01/26 11:29:33;;;;;;;109.20;60.53;;;3.90;99.90;;;;;;5154601;27;20394;-78
2022/01/26 11:32:02;;;;;;;110.97;58.47;;;3.90;99.90;;;;;;5154470;27;20039;-77
2022/01/26 11:34:29;;;;;;;106.82;58.55;;;3.90;99.90;;;;;;5144419;27;20047;-77
2022/01/26 11:36:59;;;;;;;103.50;58.22;;;3.90;99.90;;;;;;5133669;27;20075;-77
2022/01/26 11:45:03;;;;;;;100.78;56.47;;;4.00;99.90;;;;;;5133755;27;20560;-76
2022/01/26 11:45:08;;;;;;;100.72;56.75;;;4.00;99.90;;;;;;5134376;27;20082;-76
2022/01/26 11:47:43;;;;;;;103.53;57.67;;;4.00;99.90;;;;;;5133897;27;20047;-76
2022/01/26 11:50:14;;;;;;;94.72;54.78;;;4.00;99.90;;;;;;5134728;27;20479;-77
2022/01/26 11:52:45;;;;;;;100.18;57.67;;;4.00;99.90;;;;;;5150826;27;20038;-77
2022/01/26 11:55:32;;;;;;;100.47;56.28;;;4.00;99.90;;;;;;5140765;27;20396;-76
2022/01/26 11:58:10;;;;;;;100.43;54.22;;;4.00;99.90;;;;;;5133018;27;20427;-77
2022/01/26 12:03:30;;;;;;;91.50;53.00;;;4.00;99.90;;;;;;5133829;27;20141;-76
2022/01/26 12:05:58;;;;;;;97.30;53.65;;;4.00;99.90;;;;;;5148512;27;20070;-76
2022/01/26 12:08:35;;;;;;;97.28;54.38;;;4.00;99.90;;;;;;5154485;27;20066;-76
2022/01/26 12:11:01;;;;;;;90.95;51.80;;;4.00;99.90;;;;;;5153924;27;20061;-77
2022/01/26 12:13:30;;;;;;;91.43;52.22;;;4.00;99.90;;;;;;5154565;27;20047;-77
2022/01/26 12:16:07;;;;;;;87.70;50.10;;;4.10;99.90;;;;;;5153872;27;20126;-76
2022/01/26 12:18:40;;;;;;;91.20;51.78;;;4.10;99.90;;;;;;5154291;27;20129;-76
2022/01/26 12:38:30;;;;;;;83.20;47.97;;;4.20;99.90;;;;;;5141562;27;20104;-77
2022/01/26 12:43:54;;;;;;;85.07;48.05;;;4.20;99.90;;;;;;5158087;27;20099;-77
2022/01/26 12:46:29;;;;;;;89.47;49.83;;;4.20;99.90;;;;;;5157995;27;20039;-76
2022/01/26 12:49:04;;;;;;;87.25;47.92;;;4.20;99.90;;;;;;5156619;27;20292;-76
2022/01/26 12:51:32;;;;;;;86.47;49.20;;;4.20;99.90;;;;;;5158298;27;20042;-77
2022/01/26 12:54:01;;;;;;;83.00;47.97;;;4.20;99.90;;;;;;5157433;27;20073;-76
2022/01/26 12:56:29;;;;;;;84.78;48.75;;;4.30;99.90;;;;;;5157875;27;20444;-77
2022/01/26 12:59:02;;;;;;;84.20;47.58;;;4.30;99.90;;;;;;5157115;27;20058;-76
2022/01/26 13:01:28;;;;;;;83.43;47.45;;;4.30;99.90;;;;;;5157874;27;20111;-76
2022/01/26 13:03:59;;;;;;;86.68;48.03;;;4.30;99.90;;;;;;5147761;27;20049;-76
2022/01/26 13:06:28;;;;;;;87.07;49.03;;;4.30;99.90;;;;;;5136894;27;20524;-77
2022/01/26 13:08:59;;;;;;;85.57;48.05;;;4.30;99.90;;;;;;5135595;27;20130;-77
2022/01/26 13:11:27;;;;;;;80.97;46.78;;;4.30;99.90;;;;;;5136869;27;20391;-77
2022/01/26 13:14:23;;;;;;;82.30;47.58;;;4.30;99.90;;;;;;5136332;27;20047;-76
2022/01/26 13:17:32;;;;;;;81.20;45.70;;;4.40;99.90;;;;;;5149600;27;20042;-77
2022/01/26 13:26:20;;;;;;;82.88;48.33;;;4.40;99.90;;;;;;5157273;27;20047;-77
2022/01/26 13:47:00;;;;;;;78.72;46.40;;;4.50;99.90;;;;;;5156520;27;20407;-77
2022/01/26 13:49:42;;;;;;;75.50;44.22;;;4.50;99.90;;;;;;5136578;27;20092;-77
2022/01/26 13:52:26;;;;;;;80.00;45.65;;;4.60;99.90;;;;;;5135480;27;20047;-76
2022/01/26 13:55:14;;;;;;;77.90;45.30;;;4.60;99.90;;;;;;5135737;27;20126;-76
2022/01/26 14:00:19;;;;;;;78.63;44.67;;;4.60;99.90;;;;;;5156191;27;20406;-77
2022/01/26 14:02:45;;;;;;;79.07;46.10;;;4.60;99.90;;;;;;5156511;27;20053;-78
2022/01/26 14:05:12;;;;;;;79.05;44.53;;;4.60;99.90;;;;;;5156235;27;20045;-78
2022/01/26 14:07:38;;;;;;;79.10;43.50;;;4.60;99.90;;;;;;5156333;27;20043;-76
2022/01/26 14:10:04;;;;;;;78.72;44.58;;;4.60;99.90;;;;;;5137468;27;20047;-77
2022/01/26 14:12:35;;;;;;;77.63;43.60;;;4.60;99.90;;;;;;5135767;27;20043;-77
2022/01/26 14:15:06;;;;;;;77.20;42.75;;;4.60;99.90;;;;;;5135163;27;20050;-77
2022/01/26 14:17:55;;;;;;;79.10;45.05;;;4.60;99.90;;;;;;5135583;27;20412;-77
2022/01/26 14:23:19;;;;;;;78.63;44.22;;;4.60;99.90;;;;;;5134946;27;20062;-77
2022/01/26 14:25:48;;;;;;;84.25;44.40;;;4.60;99.90;;;;;;5135408;27;20055;-77
2022/01/26 14:28:17;;;;;;;79.65;43.05;;;4.60;99.90;;;;;;5134854;27;20051;-77
2022/01/26 16:07:11;;;;;;;78.53;40.90;;;4.40;99.90;;;;;;5134647;27;20042;-77
2022/01/26 18:15:19;;;;;;;76.57;45.08;;;4.60;99.90;;;;;;5155944;27;20053;-76
2022/01/26 18:49:39;;;;;;;74.60;44.70;;;4.70;99.90;;;;;;5132633;27;20062;-75
2022/01/26 18:52:05;;;;;;;79.72;47.45;;;4.70;99.90;;;;;;5132992;27;20491;-76
2022/01/26 18:54:33;;;;;;;77.70;45.42;;;4.70;99.90;;;;;;5135188;27;20074;-76
2022/01/26 18:57:01;;;;;;;76.35;45.28;;;4.70;99.90;;;;;;5138944;27;20505;-76
2022/01/26 18:59:28;;;;;;;75.78;45.13;;;4.70;99.90;;;;;;5136819;27;20407;-75
2022/01/26 19:01:55;;;;;;;79.80;46.45;;;4.70;99.90;;;;;;5134067;27;20047;-76
2022/01/26 19:04:29;;;;;;;74.28;45.22;;;4.70;99.90;;;;;;5140979;27;20049;-76
2022/01/26 19:06:55;;;;;;;77.70;46.22;;;4.70;99.90;;;;;;5143798;27;20042;-75
2022/01/26 19:09:24;;;;;;;74.43;45.67;;;4.70;99.90;;;;;;5153766;27;20043;-76
2022/01/26 19:11:51;;;;;;;75.90;43.97;;;4.80;99.90;;;;;;5133836;27;20036;-76
2022/01/26 19:14:17;;;;;;;76.63;45.15;;;4.80;99.90;;;;;;5133503;27;20039;-75
2022/01/26 19:19:27;;;;;;;77.72;46.38;;;4.80;99.90;;;;;;5139682;27;20122;-76
2022/01/26 19:22:04;;;;;;;74.63;45.03;;;4.80;99.90;;;;;;5149470;27;20043;-76
2022/01/26 19:24:48;;;;;;;82.55;46.92;;;4.80;99.90;;;;;;5136363;27;20381;-76
2022/01/26 19:43:50;;;;;;;74.68;46.97;;;4.80;99.90;;;;;;5147053;27;20082;-76
2022/01/26 19:52:05;;;;;;;71.40;46.20;;;4.80;99.90;;;;;;5120275;27;20047;-76
2022/01/26 19:54:31;;;;;;;71.38;46.55;;;4.90;99.90;;;;;;5145858;27;20077;-75
2022/01/26 19:56:57;;;;;;;72.57;46.08;;;4.90;99.90;;;;;;5140685;27;20063;-76
2022/01/26 19:59:23;;;;;;;69.05;45.22;;;4.90;99.90;;;;;;5135612;27;20593;-75
2022/01/26 20:01:48;;;;;;;68.90;45.10;;;4.90;99.90;;;;;;5149292;27;20821;-76
2022/01/26 20:04:14;;;;;;;67.05;44.13;;;4.90;99.90;;;;;;5138349;27;20065;-76
2022/01/26 20:06:41;;;;;;;71.25;44.95;;;4.90;99.90;;;;;;5136585;27;20043;-76